Time;durP1;ratioP1;P1;durP2;ratioP2;P2;SDS_P1;SDS_P2;PMS_P1;PMS_P2;Temp;Humidity;BMP_temperature;BMP_pressure;BME280_temperature;BME280_humidity;BME280_pressure;Samples;Min_cycle;Max_cycle;Signal;HPM_P1;HPM_P2
2022/08/09 00:01:49;;;;;;;5.95;4.35;;;13.60;99.90;;;;;;5056290;28;20037;-85
2022/08/09 00:04:18;;;;;;;5.80;4.28;;;13.60;99.90;;;;;;5075163;28;20029;-86
2022/08/09 00:06:43;;;;;;;5.97;4.22;;;13.60;99.90;;;;;;5075121;28;20047;-85
2022/08/09 00:09:09;;;;;;;7.80;3.28;;;13.60;99.90;;;;;;5072701;28;20041;-84
2022/08/09 00:11:36;;;;;;;6.93;4.35;;;13.60;99.90;;;;;;5075768;28;20048;-84
2022/08/09 00:14:02;;;;;;;4.47;3.50;;;13.50;99.90;;;;;;5071980;28;20029;-85
2022/08/09 00:16:28;;;;;;;4.07;2.67;;;13.40;99.90;;;;;;5054793;28;20040;-84
2022/08/09 00:18:54;;;;;;;6.53;2.72;;;13.40;99.90;;;;;;5074354;28;20522;-85
2022/08/09 00:21:20;;;;;;;5.90;2.88;;;13.30;99.90;;;;;;5052648;28;20136;-84
2022/08/09 00:23:45;;;;;;;4.88;3.33;;;13.30;99.90;;;;;;5080904;28;20045;-84
2022/08/09 00:26:11;;;;;;;4.15;2.70;;;13.30;99.90;;;;;;5081626;28;21007;-83
2022/08/09 00:28:38;;;;;;;6.55;4.18;;;13.30;99.90;;;;;;5057111;28;20078;-84
2022/08/09 00:31:04;;;;;;;6.32;2.88;;;13.30;99.90;;;;;;5083448;28;20510;-84
2022/08/09 00:33:30;;;;;;;5.72;4.45;;;13.20;99.90;;;;;;5079595;28;20490;-84
2022/08/09 00:35:58;;;;;;;5.03;2.20;;;13.20;99.90;;;;;;5057826;28;20033;-84
2022/08/09 00:38:24;;;;;;;6.68;3.40;;;13.20;99.90;;;;;;5071780;28;20178;-84
2022/08/09 00:40:50;;;;;;;4.53;2.70;;;13.20;99.90;;;;;;5064024;28;20040;-85
2022/08/09 00:43:16;;;;;;;3.22;2.25;;;13.20;99.90;;;;;;5073298;28;20517;-85
2022/08/09 00:45:41;;;;;;;3.65;2.40;;;13.20;99.90;;;;;;5073892;28;20127;-85
2022/08/09 00:48:07;;;;;;;4.25;2.08;;;13.20;99.90;;;;;;5066114;28;20040;-84
2022/08/09 00:50:33;;;;;;;3.42;1.90;;;13.10;99.90;;;;;;5079223;28;20047;-84
2022/08/09 00:52:59;;;;;;;8.57;2.17;;;13.10;99.90;;;;;;5080437;28;20043;-84
2022/08/09 00:55:25;;;;;;;4.20;2.53;;;13.10;99.90;;;;;;5062762;28;20435;-84
2022/08/09 00:57:50;;;;;;;8.00;3.10;;;13.10;99.90;;;;;;5058542;28;20036;-84
2022/08/09 01:00:16;;;;;;;5.13;3.40;;;13.00;99.90;;;;;;5077092;28;20039;-84
2022/08/09 01:02:47;;;;;;;5.03;3.40;;;13.00;99.90;;;;;;5074574;28;20040;-84
2022/08/09 01:05:33;;;;;;;6.05;3.50;;;13.00;99.90;;;;;;5076997;28;20050;-84
2022/08/09 01:08:19;;;;;;;7.22;3.03;;;13.00;99.90;;;;;;5069816;28;20055;-84
2022/08/09 01:10:57;;;;;;;4.90;3.38;;;12.90;99.90;;;;;;5067120;28;20493;-84
2022/08/09 01:13:22;;;;;;;5.40;3.50;;;12.90;99.90;;;;;;5064776;28;20505;-84
2022/08/09 01:15:53;;;;;;;5.82;3.50;;;12.80;99.90;;;;;;5073237;28;20119;-84
2022/08/09 01:18:23;;;;;;;5.78;3.97;;;12.80;99.90;;;;;;5048798;28;20043;-83
2022/08/09 01:21:14;;;;;;;6.43;3.85;;;12.80;99.90;;;;;;5063134;28;20045;-83
2022/08/09 01:23:55;;;;;;;6.40;4.03;;;12.80;99.90;;;;;;5065020;28;20040;-83
2022/08/09 01:26:37;;;;;;;6.43;3.83;;;12.90;99.90;;;;;;5065334;28;20117;-83
2022/08/09 01:29:05;;;;;;;7.38;4.40;;;12.90;99.90;;;;;;5064855;28;20037;-83
2022/08/09 01:31:34;;;;;;;6.43;4.43;;;12.90;99.90;;;;;;5044518;28;20040;-82
2022/08/09 01:34:03;;;;;;;8.75;4.93;;;12.90;99.90;;;;;;5075171;28;20038;-82
2022/08/09 01:36:30;;;;;;;6.60;4.65;;;12.80;99.90;;;;;;5065880;28;20032;-82
2022/08/09 01:38:59;;;;;;;5.30;3.45;;;12.80;99.90;;;;;;5064460;28;20476;-82
2022/08/09 01:41:28;;;;;;;13.07;5.25;;;12.70;99.90;;;;;;5046414;28;20036;-82
2022/08/09 01:43:56;;;;;;;5.75;3.08;;;12.60;99.90;;;;;;5060224;28;21945;-82
2022/08/09 01:46:36;;;;;;;7.78;3.67;;;12.60;99.90;;;;;;5067147;28;20128;-82
2022/08/09 01:49:10;;;;;;;6.50;3.83;;;12.60;99.90;;;;;;5066442;28;20032;-83
2022/08/09 01:51:42;;;;;;;9.00;3.33;;;12.60;99.90;;;;;;5062419;28;20082;-83
2022/08/09 01:54:09;;;;;;;6.47;2.80;;;12.60;99.90;;;;;;5051302;28;20033;-82
2022/08/09 01:56:38;;;;;;;9.70;2.83;;;12.50;99.90;;;;;;5066245;28;20032;-82
2022/08/09 01:59:09;;;;;;;4.05;2.53;;;12.50;99.90;;;;;;5063842;28;20048;-82
2022/08/09 02:01:36;;;;;;;7.20;3.92;;;12.50;99.90;;;;;;5061295;28;20044;-82
2022/08/09 02:04:03;;;;;;;10.07;3.30;;;12.50;99.90;;;;;;5062374;28;20047;-82
2022/08/09 02:09:17;;;;;;;5.88;2.83;;;12.40;99.90;;;;;;5060013;28;20503;-82
2022/08/09 02:11:43;;;;;;;5.68;3.17;;;12.50;99.90;;;;;;5062078;28;20040;-82
2022/08/09 02:14:10;;;;;;;6.10;2.65;;;12.50;99.90;;;;;;5072409;28;20044;-82
2022/08/09 02:16:38;;;;;;;34.75;4.55;;;12.40;99.90;;;;;;5070254;28;20124;-82
2022/08/09 02:19:04;;;;;;;5.88;2.22;;;12.40;99.90;;;;;;5062435;28;20043;-82
2022/08/09 02:21:38;;;;;;;6.38;2.80;;;12.30;99.90;;;;;;5072562;28;20036;-81
2022/08/09 02:24:09;;;;;;;5.75;3.90;;;12.30;99.90;;;;;;5074449;28;20047;-82
2022/08/09 02:26:36;;;;;;;5.10;2.53;;;12.20;99.90;;;;;;5074190;28;20048;-81
2022/08/09 02:29:19;;;;;;;10.98;3.00;;;12.20;99.90;;;;;;5057840;28;20098;-82
2022/08/09 02:31:47;;;;;;;6.50;3.60;;;12.20;99.90;;;;;;5055975;28;20073;-82
2022/08/09 02:34:27;;;;;;;3.72;2.15;;;12.10;99.90;;;;;;5056253;28;20059;-81
2022/08/09 02:36:55;;;;;;;9.30;2.67;;;12.10;99.90;;;;;;5071248;28;20045;-81
2022/08/09 02:39:29;;;;;;;5.00;2.63;;;12.00;99.90;;;;;;5073090;28;20103;-81
2022/08/09 02:42:00;;;;;;;3.13;1.88;;;12.00;99.90;;;;;;5070370;28;20048;-81
2022/08/09 02:44:30;;;;;;;7.07;2.42;;;12.00;99.90;;;;;;5059390;28;20106;-82
2022/08/09 02:46:58;;;;;;;23.05;3.92;;;11.90;99.90;;;;;;5052921;28;20048;-81
2022/08/09 02:49:23;;;;;;;14.25;2.67;;;12.00;99.90;;;;;;5071184;28;20041;-82
2022/08/09 02:51:54;;;;;;;4.07;1.95;;;12.00;99.90;;;;;;5071636;28;20040;-81
2022/08/09 02:54:22;;;;;;;10.48;2.55;;;12.00;99.90;;;;;;5074644;28;20028;-82
2022/08/09 02:56:51;;;;;;;5.15;2.15;;;12.10;99.90;;;;;;5057354;28;20036;-83
2022/08/09 02:59:18;;;;;;;9.95;2.45;;;12.00;99.90;;;;;;5074802;28;20037;-82
2022/08/09 03:01:45;;;;;;;8.25;2.20;;;12.10;99.90;;;;;;5067080;28;20487;-82
2022/08/09 03:04:12;;;;;;;11.88;3.55;;;12.10;99.90;;;;;;5080832;28;20050;-83
2022/08/09 03:06:40;;;;;;;25.88;5.28;;;12.20;99.90;;;;;;5068734;28;20052;-83
2022/08/09 03:09:07;;;;;;;13.20;3.60;;;12.20;99.90;;;;;;5066529;28;20076;-82
2022/08/09 03:11:33;;;;;;;19.38;4.45;;;12.10;99.90;;;;;;5051967;28;20033;-82
2022/08/09 03:14:00;;;;;;;11.68;3.65;;;12.20;99.90;;;;;;5052205;28;20037;-82
2022/08/09 03:16:27;;;;;;;10.82;2.90;;;12.20;99.90;;;;;;5069917;28;20071;-82
2022/08/09 03:18:54;;;;;;;8.70;2.03;;;12.20;99.90;;;;;;5075657;28;20044;-82
2022/08/09 03:21:22;;;;;;;6.38;2.45;;;12.20;99.90;;;;;;5070440;28;20045;-82
2022/08/09 03:23:47;;;;;;;9.43;2.75;;;12.20;99.90;;;;;;5053822;28;20141;-83
2022/08/09 03:26:17;;;;;;;8.65;2.05;;;12.20;99.90;;;;;;5078942;28;21963;-83
2022/08/09 03:28:46;;;;;;;6.82;2.20;;;12.20;99.90;;;;;;5073316;28;20113;-82
2022/08/09 03:31:12;;;;;;;8.20;2.50;;;12.20;99.90;;;;;;5076039;28;20040;-83
2022/08/09 03:33:39;;;;;;;3.13;1.27;;;12.20;99.90;;;;;;5071223;28;20041;-83
2022/08/09 03:36:06;;;;;;;5.07;1.83;;;12.20;99.90;;;;;;5077579;28;20370;-82
2022/08/09 03:38:32;;;;;;;10.93;1.98;;;12.20;99.90;;;;;;5073975;28;20036;-82
2022/08/09 03:40:58;;;;;;;5.22;1.55;;;12.10;99.90;;;;;;5054021;28;20171;-82
2022/08/09 03:43:26;;;;;;;8.40;1.90;;;12.10;99.90;;;;;;5069576;28;20122;-83
2022/08/09 03:45:51;;;;;;;9.68;1.60;;;12.10;99.90;;;;;;5073265;28;20088;-82
2022/08/09 03:48:19;;;;;;;45.88;5.57;;;12.10;99.90;;;;;;5054843;28;20498;-82
2022/08/09 03:50:46;;;;;;;31.80;3.85;;;12.00;99.90;;;;;;5064129;28;20430;-82
2022/08/09 03:53:12;;;;;;;29.38;5.85;;;11.90;99.90;;;;;;5071760;28;20119;-83
2022/08/09 03:55:38;;;;;;;20.15;4.78;;;11.80;99.90;;;;;;5070584;28;20120;-83
2022/08/09 03:58:04;;;;;;;7.55;1.95;;;11.70;99.90;;;;;;5067260;28;20115;-83
2022/08/09 04:00:30;;;;;;;18.98;3.72;;;11.60;99.90;;;;;;5070800;28;20044;-82
2022/08/09 04:02:55;;;;;;;13.63;1.98;;;11.60;99.90;;;;;;5065474;28;20059;-82
2022/08/09 04:05:21;;;;;;;17.77;2.33;;;11.60;99.90;;;;;;5070461;28;20078;-82
2022/08/09 04:07:47;;;;;;;4.97;1.23;;;11.60;99.90;;;;;;5078186;28;20051;-83
2022/08/09 04:10:14;;;;;;;4.28;1.40;;;11.50;99.90;;;;;;5059975;28;20036;-82
2022/08/09 04:12:49;;;;;;;11.07;1.92;;;11.50;99.90;;;;;;5070242;28;20124;-82
2022/08/09 04:15:15;;;;;;;21.15;2.42;;;11.50;99.90;;;;;;5080187;28;20033;-81
2022/08/09 04:17:42;;;;;;;23.90;3.22;;;11.50;99.90;;;;;;5070314;28;20036;-81
2022/08/09 04:20:10;;;;;;;8.40;1.02;;;11.40;99.90;;;;;;5071347;28;20032;-81
2022/08/09 04:22:36;;;;;;;7.50;1.73;;;11.20;99.90;;;;;;5071024;28;20048;-81
2022/08/09 04:25:03;;;;;;;15.43;2.50;;;11.40;99.90;;;;;;5075981;28;20119;-81
2022/08/09 04:27:29;;;;;;;16.67;1.92;;;11.50;99.90;;;;;;5071028;28;20073;-81
2022/08/09 04:29:55;;;;;;;9.55;1.45;;;11.50;99.90;;;;;;5071397;28;20075;-81
2022/08/09 04:32:20;;;;;;;5.25;1.20;;;11.50;99.90;;;;;;5076108;28;20506;-81
2022/08/09 04:34:46;;;;;;;24.30;4.70;;;11.50;99.90;;;;;;5072479;28;20040;-81
2022/08/09 04:37:11;;;;;;;10.45;1.95;;;11.60;99.90;;;;;;5078231;28;20035;-81
2022/08/09 04:39:37;;;;;;;19.08;2.88;;;11.50;99.90;;;;;;5077603;28;20107;-81
2022/08/09 04:42:03;;;;;;;6.93;2.10;;;11.50;99.90;;;;;;5075124;28;20036;-81
2022/08/09 04:44:28;;;;;;;5.63;2.17;;;11.50;99.90;;;;;;5069661;28;20115;-82
2022/08/09 04:46:54;;;;;;;21.13;2.63;;;11.50;99.90;;;;;;5071727;28;20107;-82
2022/08/09 04:49:19;;;;;;;4.75;1.30;;;11.50;99.90;;;;;;5072700;28;20048;-82
2022/08/09 04:51:45;;;;;;;17.98;1.98;;;11.60;99.90;;;;;;5073187;28;20116;-81
2022/08/09 04:54:10;;;;;;;31.48;3.35;;;11.60;99.90;;;;;;5073004;28;20136;-81
2022/08/09 04:56:36;;;;;;;29.50;4.05;;;11.70;99.90;;;;;;5074782;28;20047;-81
2022/08/09 04:59:02;;;;;;;25.02;4.07;;;11.70;99.90;;;;;;5057669;28;20048;-81
2022/08/09 05:01:27;;;;;;;24.85;4.07;;;11.70;99.90;;;;;;5071144;28;20045;-81
2022/08/09 05:03:53;;;;;;;4.55;2.20;;;11.80;99.90;;;;;;5069722;28;20049;-82
2022/08/09 05:06:18;;;;;;;5.97;2.00;;;11.90;99.90;;;;;;5066735;28;20040;-82
2022/08/09 05:08:44;;;;;;;5.93;1.63;;;12.00;99.90;;;;;;5070217;28;20055;-82
2022/08/09 05:11:10;;;;;;;9.23;2.45;;;12.10;99.90;;;;;;5070984;28;20096;-81
2022/08/09 05:13:35;;;;;;;5.78;2.33;;;12.20;99.90;;;;;;5071874;28;20466;-81
2022/08/09 05:16:01;;;;;;;2.28;1.17;;;12.10;99.90;;;;;;5077687;28;20091;-82
2022/08/09 05:18:32;;;;;;;3.38;1.67;;;12.20;99.90;;;;;;5068626;28;20075;-82
2022/08/09 05:20:58;;;;;;;5.03;1.75;;;12.30;99.90;;;;;;5074465;28;20052;-81
2022/08/09 05:23:24;;;;;;;6.30;2.40;;;12.40;99.90;;;;;;5077556;28;20057;-82
2022/08/09 05:25:50;;;;;;;3.90;1.80;;;12.50;99.90;;;;;;5074784;28;20119;-81
2022/08/09 05:28:16;;;;;;;5.55;2.42;;;12.50;99.90;;;;;;5073256;28;20052;-81
2022/08/09 05:30:43;;;;;;;5.53;2.40;;;12.50;99.90;;;;;;5073122;28;20044;-82
2022/08/09 05:33:08;;;;;;;6.22;2.42;;;12.60;99.90;;;;;;5074177;28;20037;-81
2022/08/09 05:35:34;;;;;;;4.50;2.08;;;12.70;99.90;;;;;;5075184;28;20095;-82
2022/08/09 05:38:00;;;;;;;3.90;2.25;;;12.90;99.90;;;;;;5073977;28;20037;-82
2022/08/09 05:40:27;;;;;;;8.07;3.25;;;12.90;99.90;;;;;;5077653;28;20040;-81
2022/08/09 05:42:56;;;;;;;5.68;2.42;;;13.00;99.90;;;;;;5074355;28;20586;-82
2022/08/09 05:45:22;;;;;;;5.93;4.00;;;13.20;99.90;;;;;;5090395;28;20045;-82
2022/08/09 05:47:48;;;;;;;8.95;4.47;;;13.30;99.90;;;;;;5060875;28;20036;-82
2022/08/09 05:50:14;;;;;;;6.28;4.28;;;13.50;99.90;;;;;;5079781;28;20083;-81
2022/08/09 05:52:41;;;;;;;6.43;2.90;;;13.60;99.90;;;;;;5077091;28;20099;-81
2022/08/09 05:55:07;;;;;;;5.43;3.45;;;13.70;99.90;;;;;;5080697;28;20050;-81
2022/08/09 05:57:36;;;;;;;6.30;4.57;;;13.90;99.90;;;;;;5094613;28;20049;-81
2022/08/09 06:00:05;;;;;;;7.05;4.60;;;14.00;99.90;;;;;;5078182;28;20135;-82
2022/08/09 06:02:31;;;;;;;8.18;4.68;;;14.10;99.90;;;;;;5089863;28;20186;-81
2022/08/09 06:04:56;;;;;;;7.50;4.38;;;14.20;99.90;;;;;;5059440;28;20040;-81
2022/08/09 06:07:22;;;;;;;6.72;4.43;;;14.30;99.90;;;;;;5078148;28;20047;-82
2022/08/09 06:09:48;;;;;;;10.40;5.72;;;14.50;99.90;;;;;;5071942;28;20064;-82
2022/08/09 06:12:14;;;;;;;7.25;4.72;;;14.60;99.90;;;;;;5077237;28;20092;-82
2022/08/09 06:14:39;;;;;;;9.20;6.78;;;14.80;99.90;;;;;;5075771;28;20040;-82
2022/08/09 06:17:05;;;;;;;10.60;5.82;;;14.90;99.90;;;;;;5059037;28;20490;-82
2022/08/09 06:19:30;;;;;;;11.90;6.40;;;15.10;99.90;;;;;;5084610;28;20044;-82
2022/08/09 06:21:56;;;;;;;12.32;5.68;;;15.30;99.90;;;;;;5075015;28;20067;-82
2022/08/09 06:24:22;;;;;;;8.45;5.50;;;15.40;99.90;;;;;;5077722;28;20045;-82
2022/08/09 06:26:47;;;;;;;8.30;5.70;;;15.60;99.90;;;;;;5082262;28;20047;-82
2022/08/09 06:29:13;;;;;;;7.25;5.80;;;15.70;99.90;;;;;;5074780;28;20033;-82
2022/08/09 06:31:38;;;;;;;8.35;5.65;;;15.80;99.90;;;;;;5075697;28;20044;-82
2022/08/09 06:34:05;;;;;;;7.90;4.63;;;16.00;99.90;;;;;;5078096;28;20483;-83
2022/08/09 06:36:30;;;;;;;8.13;5.55;;;16.20;99.90;;;;;;5071132;28;20036;-83
2022/08/09 06:38:56;;;;;;;6.32;4.25;;;16.30;99.90;;;;;;5074125;28;20075;-83
2022/08/09 06:41:23;;;;;;;7.70;5.50;;;16.40;99.90;;;;;;5073811;28;20056;-83
2022/08/09 06:43:49;;;;;;;5.03;4.43;;;16.60;99.90;;;;;;5060379;28;20054;-83
2022/08/09 06:46:15;;;;;;;4.93;3.88;;;16.70;99.90;;;;;;5059951;28;20105;-82
2022/08/09 06:48:41;;;;;;;6.50;4.18;;;16.80;99.90;;;;;;5073186;28;20028;-82
2022/08/09 06:51:08;;;;;;;6.65;4.15;;;16.90;99.90;;;;;;5073934;28;20039;-82
2022/08/09 06:53:34;;;;;;;5.68;3.75;;;17.10;99.90;;;;;;5069370;28;20082;-82
2022/08/09 06:56:01;;;;;;;5.60;3.60;;;17.20;99.90;;;;;;5079191;28;20237;-83
2022/08/09 06:58:28;;;;;;;5.47;2.90;;;17.30;99.90;;;;;;5074943;28;20046;-82
2022/08/09 07:00:54;;;;;;;4.70;2.72;;;17.50;99.90;;;;;;5061350;28;20047;-82
2022/08/09 07:03:20;;;;;;;6.43;3.30;;;17.80;99.90;;;;;;5082971;28;20040;-82
2022/08/09 07:05:46;;;;;;;4.55;3.03;;;18.20;99.90;;;;;;5077560;28;20044;-82
2022/08/09 07:08:11;;;;;;;6.57;3.10;;;18.50;99.90;;;;;;5078383;28;20755;-82
2022/08/09 07:10:37;;;;;;;3.90;2.47;;;18.80;99.90;;;;;;5060373;28;20044;-82
2022/08/09 07:13:03;;;;;;;3.55;1.70;;;19.00;99.90;;;;;;5086653;28;20048;-82
2022/08/09 07:15:28;;;;;;;4.95;2.20;;;19.20;99.90;;;;;;5084810;28;20040;-82
2022/08/09 07:17:54;;;;;;;4.38;1.90;;;19.40;99.90;;;;;;5083069;28;20410;-82
2022/08/09 07:20:20;;;;;;;3.40;1.45;;;19.60;99.90;;;;;;5063233;28;20045;-82
2022/08/09 07:22:45;;;;;;;3.22;1.00;;;19.80;99.90;;;;;;5077533;28;20049;-82
2022/08/09 07:25:11;;;;;;;3.85;2.00;;;20.00;99.90;;;;;;5076795;28;20380;-82
2022/08/09 07:27:38;;;;;;;2.95;1.17;;;20.20;99.90;;;;;;5076176;28;20151;-81
2022/08/09 07:30:04;;;;;;;3.90;0.70;;;20.40;99.90;;;;;;5057991;28;20438;-81
2022/08/09 07:32:30;;;;;;;1.67;0.90;;;20.70;99.90;;;;;;5075737;28;20048;-81
2022/08/09 07:34:56;;;;;;;1.25;0.60;;;20.90;99.90;;;;;;5081275;28;20040;-81
2022/08/09 07:37:22;;;;;;;2.38;0.55;;;20.90;99.90;;;;;;5057039;28;20033;-81
2022/08/09 07:39:47;;;;;;;1.15;0.40;;;21.00;99.90;;;;;;5051794;28;20075;-80
2022/08/09 07:42:13;;;;;;;2.20;0.65;;;21.10;99.90;;;;;;5075685;28;20093;-81
2022/08/09 07:44:39;;;;;;;1.48;0.40;;;21.40;99.90;;;;;;5073814;28;20033;-80
2022/08/09 07:47:05;;;;;;;1.23;0.40;;;21.50;99.90;;;;;;5056996;28;20097;-80
2022/08/09 07:49:31;;;;;;;1.95;0.45;;;21.60;99.90;;;;;;5075979;28;20123;-80
2022/08/09 07:51:56;;;;;;;3.30;0.60;;;21.70;99.90;;;;;;5075935;28;20032;-81
2022/08/09 07:54:22;;;;;;;2.53;0.55;;;21.90;99.90;;;;;;5068949;28;20095;-80
2022/08/09 07:56:48;;;;;;;1.70;0.30;;;21.90;99.90;;;;;;5075671;28;20040;-80
2022/08/09 07:59:13;;;;;;;1.17;0.47;;;21.60;99.90;;;;;;5071623;28;20100;-80
2022/08/09 08:01:39;;;;;;;1.48;0.70;;;21.40;99.90;;;;;;5076977;28;20048;-80
2022/08/09 08:04:05;;;;;;;1.88;0.50;;;21.40;99.90;;;;;;5080864;28;20414;-80
2022/08/09 08:06:30;;;;;;;1.15;0.52;;;21.40;99.90;;;;;;5060948;28;20105;-80
2022/08/09 08:08:56;;;;;;;2.20;0.45;;;21.20;99.90;;;;;;5077101;28;20044;-80
2022/08/09 08:11:22;;;;;;;1.90;0.52;;;21.00;99.90;;;;;;5076832;28;20046;-80
2022/08/09 08:13:47;;;;;;;0.60;0.22;;;21.00;99.90;;;;;;5076226;28;20040;-80
2022/08/09 08:16:13;;;;;;;0.93;0.30;;;21.20;99.90;;;;;;5076773;28;20048;-80
2022/08/09 08:18:38;;;;;;;1.27;0.40;;;21.50;99.90;;;;;;5076499;28;20395;-79
2022/08/09 08:21:04;;;;;;;1.15;0.35;;;21.80;99.90;;;;;;5075301;28;20040;-79
2022/08/09 08:23:30;;;;;;;2.33;0.30;;;22.00;99.90;;;;;;5075570;28;20048;-79
2022/08/09 08:25:55;;;;;;;1.42;0.50;;;22.30;99.90;;;;;;5059946;28;20040;-79
2022/08/09 08:28:22;;;;;;;1.27;0.40;;;22.40;99.90;;;;;;5074611;28;20093;-79
2022/08/09 08:30:47;;;;;;;1.20;0.22;;;22.50;99.90;;;;;;5075079;28;20411;-79
2022/08/09 08:33:14;;;;;;;0.60;0.30;;;22.70;99.90;;;;;;5085620;28;20040;-79
2022/08/09 08:35:40;;;;;;;2.58;0.20;;;22.80;99.90;;;;;;5096947;28;20498;-79
2022/08/09 08:38:05;;;;;;;0.98;0.20;;;23.00;99.90;;;;;;5095528;28;20065;-79
2022/08/09 08:40:32;;;;;;;0.70;0.20;;;23.00;99.90;;;;;;5095183;28;20171;-79
2022/08/09 08:42:58;;;;;;;1.45;0.20;;;23.10;99.90;;;;;;5095618;28;20561;-79
2022/08/09 08:45:48;;;;;;;0.35;0.20;;;23.30;99.90;;;;;;5084075;28;20135;-79
2022/08/09 08:48:13;;;;;;;1.15;0.63;;;23.50;99.90;;;;;;5073918;28;20469;-79
2022/08/09 08:50:39;;;;;;;0.55;0.20;;;23.80;99.90;;;;;;5073849;28;20036;-79
2022/08/09 08:53:05;;;;;;;0.77;0.32;;;24.00;99.90;;;;;;5074940;28;20141;-80
2022/08/09 08:55:31;;;;;;;0.90;0.15;;;24.10;99.90;;;;;;5073403;28;20037;-79
2022/08/09 08:57:57;;;;;;;0.32;0.13;;;24.30;99.90;;;;;;5074063;28;20040;-79
2022/08/09 09:00:23;;;;;;;1.33;0.17;;;24.60;99.90;;;;;;5075598;28;20078;-79
2022/08/09 09:02:50;;;;;;;0.50;0.25;;;24.80;99.90;;;;;;5075770;28;20037;-79
2022/08/09 09:05:22;;;;;;;1.00;0.20;;;25.00;99.90;;;;;;5075507;28;20084;-79
2022/08/09 09:07:49;;;;;;;0.60;0.13;;;24.70;99.90;;;;;;5073744;28;20423;-79
2022/08/09 09:10:15;;;;;;;0.77;0.20;;;24.40;99.90;;;;;;5072168;28;20044;-78
2022/08/09 09:12:44;;;;;;;0.90;0.20;;;24.10;99.90;;;;;;5073368;28;20274;-79
2022/08/09 09:15:10;;;;;;;0.95;0.20;;;24.10;99.90;;;;;;5085800;28;20089;-79
2022/08/09 09:17:37;;;;;;;0.60;0.20;;;23.90;99.90;;;;;;5093643;28;20047;-79
2022/08/09 09:20:11;;;;;;;0.57;0.20;;;23.80;99.90;;;;;;5059359;28;20040;-79
2022/08/09 09:22:57;;;;;;;0.87;0.30;;;23.80;99.90;;;;;;5057886;28;20525;-79
2022/08/09 09:25:35;;;;;;;1.00;0.35;;;23.50;99.90;;;;;;5076409;28;20044;-79
2022/08/09 09:28:01;;;;;;;0.90;0.30;;;23.30;99.90;;;;;;5058419;28;20412;-79
2022/08/09 09:30:28;;;;;;;1.55;0.30;;;23.40;99.90;;;;;;5075058;28;20502;-79
2022/08/09 09:33:08;;;;;;;0.40;0.10;;;23.50;99.90;;;;;;5083302;28;20050;-79
2022/08/09 09:35:49;;;;;;;1.10;0.10;;;23.80;99.90;;;;;;5092966;28;20119;-79
2022/08/09 09:38:14;;;;;;;0.25;0.20;;;24.00;99.90;;;;;;5093226;28;20102;-79
2022/08/09 09:40:42;;;;;;;0.47;0.20;;;24.20;99.90;;;;;;5094486;28;20040;-80
2022/08/09 09:43:08;;;;;;;0.20;0.10;;;24.50;99.90;;;;;;5093193;28;20410;-78
2022/08/09 09:45:52;;;;;;;0.70;0.15;;;24.80;99.90;;;;;;5094260;28;20048;-79
2022/08/09 09:48:20;;;;;;;0.70;0.20;;;25.30;99.90;;;;;;5080507;28;20090;-80
2022/08/09 09:50:50;;;;;;;0.70;0.10;;;25.50;99.90;;;;;;5073674;28;20490;-81
2022/08/09 09:53:19;;;;;;;0.40;0.10;;;25.40;99.90;;;;;;5076284;28;20044;-81
2022/08/09 09:55:53;;;;;;;0.47;0.10;;;25.20;99.90;;;;;;5075764;28;20086;-81
2022/08/09 09:58:19;;;;;;;0.40;0.10;;;25.00;99.90;;;;;;5074882;28;20097;-80
2022/08/09 10:00:48;;;;;;;0.65;0.20;;;25.30;99.90;;;;;;5057656;28;20048;-80
2022/08/09 10:03:14;;;;;;;0.30;0.10;;;25.40;99.90;;;;;;5075861;28;20059;-80
2022/08/09 10:05:59;;;;;;;0.88;0.10;;;25.70;99.90;;;;;;5075856;28;20044;-80
2022/08/09 10:08:24;;;;;;;;;;;25.90;98.50;;;;;;5054877;28;20045;-81
2022/08/09 10:10:50;;;;;;;1.13;0.20;;;25.90;96.50;;;;;;5055792;28;20014;-81
2022/08/09 10:13:17;;;;;;;0.40;0.10;;;25.60;99.90;;;;;;5055565;28;20040;-81
2022/08/09 10:15:48;;;;;;;0.20;0.10;;;25.60;99.80;;;;;;5055008;28;20518;-81
2022/08/09 10:18:13;;;;;;;2.47;0.35;;;25.60;98.40;;;;;;5054263;28;20095;-81
2022/08/09 10:20:39;;;;;;;0.98;0.30;;;25.80;99.80;;;;;;5048342;28;20040;-81
2022/08/09 10:23:18;;;;;;;0.80;0.20;;;26.00;99.20;;;;;;5075192;28;20041;-81
2022/08/09 10:25:45;;;;;;;0.93;0.10;;;26.30;98.20;;;;;;5086421;28;20123;-81
2022/08/09 10:28:12;;;;;;;0.20;0.10;;;26.20;98.70;;;;;;5074264;28;20054;-81
2022/08/09 10:30:38;;;;;;;0.30;0.10;;;26.30;98.60;;;;;;5074977;28;20044;-81
2022/08/09 10:33:04;;;;;;;0.75;0.20;;;26.50;97.60;;;;;;5074381;28;20089;-81
2022/08/09 10:35:30;;;;;;;1.27;0.20;;;26.60;97.10;;;;;;5074234;28;20068;-81
2022/08/09 10:37:59;;;;;;;0.50;0.10;;;26.90;96.90;;;;;;5073841;28;20502;-81
2022/08/09 10:40:26;;;;;;;0.47;0.10;;;27.10;92.90;;;;;;5075294;28;20032;-81
2022/08/09 10:42:52;;;;;;;0.43;0.10;;;27.00;93.10;;;;;;5074604;28;20040;-81
2022/08/09 10:45:19;;;;;;;0.32;0.10;;;27.00;94.20;;;;;;5074248;28;20063;-81
2022/08/09 10:47:53;;;;;;;0.85;0.20;;;27.00;93.50;;;;;;5073372;28;20139;-81
2022/08/09 10:51:05;;;;;;;0.77;0.10;;;27.10;92.20;;;;;;5074908;28;20051;-81
2022/08/09 10:53:37;;;;;;;0.68;0.10;;;27.20;89.20;;;;;;5073789;28;20079;-81
2022/08/09 10:56:29;;;;;;;2.10;0.10;;;27.30;91.50;;;;;;5084887;28;20131;-81
2022/08/09 10:58:57;;;;;;;0.40;0.20;;;27.30;77.70;;;;;;5094497;28;20078;-81
2022/08/09 11:01:32;;;;;;;0.75;0.15;;;27.30;81.10;;;;;;5093824;28;20450;-81
2022/08/09 11:04:21;;;;;;;0.60;0.20;;;27.50;78.00;;;;;;5094746;28;20103;-81
2022/08/09 11:07:02;;;;;;;1.20;0.10;;;27.50;79.20;;;;;;5078210;28;20508;-82
2022/08/09 11:09:37;;;;;;;0.20;0.10;;;27.50;83.10;;;;;;5093674;28;20336;-81
2022/08/09 11:12:17;;;;;;;0.80;0.10;;;27.40;76.20;;;;;;5090524;28;20036;-82
2022/08/09 11:14:47;;;;;;;0.75;0.20;;;27.50;80.60;;;;;;5074260;28;20036;-81
2022/08/09 11:17:12;;;;;;;0.10;0.10;;;27.70;78.10;;;;;;5074118;28;20115;-82
2022/08/09 11:19:53;;;;;;;0.43;0.15;;;27.80;75.90;;;;;;5073567;28;20076;-81
2022/08/09 11:22:42;;;;;;;0.50;0.13;;;28.10;72.80;;;;;;5073419;28;20072;-81
2022/08/09 11:25:09;;;;;;;0.30;0.10;;;28.00;70.70;;;;;;5073974;28;20055;-81
2022/08/09 11:27:42;;;;;;;1.17;0.10;;;28.10;69.30;;;;;;5072960;28;20048;-81
2022/08/09 11:30:12;;;;;;;1.98;0.20;;;28.00;67.00;;;;;;5073978;28;20119;-81
2022/08/09 11:32:46;;;;;;;0.88;0.10;;;28.20;68.20;;;;;;5076084;28;20036;-82
2022/08/09 11:35:26;;;;;;;1.45;0.22;;;28.50;68.10;;;;;;5077142;28;20546;-82
2022/08/09 11:37:57;;;;;;;1.25;0.15;;;28.90;65.20;;;;;;5074040;28;20076;-82
2022/08/09 11:40:22;;;;;;;0.32;0.20;;;28.70;66.00;;;;;;5057998;28;20041;-82
2022/08/09 11:42:53;;;;;;;0.73;0.10;;;28.60;65.80;;;;;;5074260;28;20047;-82
2022/08/09 11:45:19;;;;;;;0.40;0.10;;;28.60;64.40;;;;;;5074825;28;20044;-82
2022/08/09 11:47:51;;;;;;;0.45;0.10;;;28.60;64.50;;;;;;5086137;28;20044;-82
2022/08/09 11:50:18;;;;;;;0.38;0.10;;;28.70;64.50;;;;;;5095083;28;20058;-82
2022/08/09 11:52:59;;;;;;;0.50;0.10;;;29.10;62.20;;;;;;5078011;28;20432;-83
2022/08/09 11:55:41;;;;;;;0.63;0.10;;;29.50;60.70;;;;;;5094416;28;20119;-83
2022/08/09 11:58:10;;;;;;;0.28;0.17;;;29.20;61.40;;;;;;5094041;28;20114;-82
2022/08/09 12:00:47;;;;;;;0.20;0.10;;;29.10;61.40;;;;;;5093841;28;20126;-81
2022/08/09 12:03:21;;;;;;;1.27;0.10;;;29.30;61.80;;;;;;5089890;28;20032;-81
2022/08/09 12:05:47;;;;;;;;;;;29.50;60.70;;;;;;5094545;28;20119;-80
2022/08/09 12:08:14;;;;;;;0.35;0.10;;;29.60;59.80;;;;;;5096353;28;19977;-79
2022/08/09 12:10:51;;;;;;;2.90;0.10;;;29.70;61.70;;;;;;5095726;28;20044;-81
2022/08/09 12:13:37;;;;;;;0.95;0.15;;;29.50;60.60;;;;;;5096611;28;20044;-83
2022/08/09 12:16:02;;;;;;;0.22;0.10;;;29.50;60.60;;;;;;5095538;28;20500;-83
2022/08/09 12:18:29;;;;;;;0.40;0.10;;;29.60;60.50;;;;;;5092198;28;20076;-83
2022/08/09 12:20:55;;;;;;;2.22;0.20;;;29.90;60.50;;;;;;5075264;28;20048;-83
2022/08/09 12:23:21;;;;;;;0.47;0.10;;;30.10;60.10;;;;;;5074300;28;20044;-82
2022/08/09 12:25:48;;;;;;;1.05;0.10;;;30.10;58.50;;;;;;5075548;28;20434;-83
2022/08/09 12:28:16;;;;;;;0.95;0.17;;;29.60;59.00;;;;;;5073916;28;20491;-83
2022/08/09 12:30:43;;;;;;;2.05;0.47;;;29.60;61.10;;;;;;5075288;28;20044;-82
2022/08/09 12:33:09;;;;;;;1.92;0.10;;;29.80;59.70;;;;;;5075884;28;20037;-81
2022/08/09 12:35:36;;;;;;;0.47;0.10;;;29.90;59.50;;;;;;5090256;28;20039;-80
2022/08/09 12:38:24;;;;;;;0.57;0.10;;;30.10;58.70;;;;;;5096066;28;20069;-80
2022/08/09 12:40:51;;;;;;;1.55;0.10;;;30.30;58.00;;;;;;5096713;28;20083;-81
2022/08/09 12:43:22;;;;;;;0.65;0.30;;;30.20;57.70;;;;;;5096003;28;20105;-80
2022/08/09 12:45:49;;;;;;;1.05;0.20;;;30.30;58.60;;;;;;5096651;28;20085;-80
2022/08/09 12:48:16;;;;;;;1.13;0.10;;;30.30;59.00;;;;;;5095364;28;20095;-81
2022/08/09 12:50:43;;;;;;;0.88;0.10;;;30.20;58.10;;;;;;5095035;28;20059;-80
2022/08/09 12:53:36;;;;;;;2.40;0.10;;;30.20;58.40;;;;;;5082788;28;20040;-81
2022/08/09 12:56:16;;;;;;;0.10;0.00;;;30.30;57.90;;;;;;5074660;28;20404;-81